Time;durP1;ratioP1;P1;durP2;ratioP2;P2;SDS_P1;SDS_P2;PMS_P1;PMS_P2;Temp;Humidity;BMP_temperature;BMP_pressure;BME280_temperature;BME280_humidity;BME280_pressure;Samples;Min_cycle;Max_cycle;Signal;HPM_P1;HPM_P2
2023/03/14 00:04:33;;;;;;;0.30;0.30;;;;;;;9.61;100.00;96281.28;15257351;19;20648;-55
2023/03/14 00:09:59;;;;;;;0.52;0.30;;;;;;;9.55;100.00;96271.34;15262900;19;20025;-49
2023/03/14 00:15:24;;;;;;;1.15;0.30;;;;;;;9.50;100.00;96274.66;15278212;19;20022;-49
2023/03/14 00:20:51;;;;;;;1.25;0.40;;;;;;;9.49;100.00;96289.13;15281142;19;20018;-50
2023/03/14 00:26:19;;;;;;;0.75;0.30;;;;;;;9.47;100.00;96280.44;15274907;19;20507;-50
2023/03/14 00:31:44;;;;;;;0.28;0.28;;;;;;;9.49;100.00;96259.56;15281707;19;20014;-53
2023/03/14 00:37:18;;;;;;;0.35;0.30;;;;;;;9.47;100.00;96256.25;15270443;19;20025;-52
2023/03/14 00:42:42;;;;;;;0.32;0.20;;;;;;;9.47;100.00;96255.44;15274073;19;20015;-51
2023/03/14 00:48:07;;;;;;;0.30;0.30;;;;;;;9.45;100.00;96274.47;15275138;19;20022;-55
2023/03/14 00:53:37;;;;;;;0.10;0.10;;;;;;;9.43;100.00;96281.91;15278178;19;20010;-51
2023/03/14 00:59:03;;;;;;;0.83;0.30;;;;;;;9.54;100.00;96258.94;15274999;19;20010;-53
2023/03/14 01:04:27;;;;;;;0.40;0.30;;;;;;;9.62;100.00;96260.59;15274578;19;20263;-48
2023/03/14 01:09:55;;;;;;;0.82;0.22;;;;;;;9.65;100.00;96271.75;15267903;19;20029;-53
2023/03/14 01:15:20;;;;;;;0.45;0.28;;;;;;;9.62;100.00;96263.28;15272749;19;20339;-52
2023/03/14 01:20:46;;;;;;;0.52;0.30;;;;;;;9.65;100.00;96295.94;15277071;19;20069;-49
2023/03/14 01:26:15;;;;;;;0.20;0.20;;;;;;;9.62;100.00;96298.22;15270448;19;20075;-52
2023/03/14 01:31:40;;;;;;;0.50;0.30;;;;;;;9.62;100.00;96303.59;15275436;19;20018;-49
2023/03/14 01:37:05;;;;;;;0.57;0.30;;;;;;;9.68;100.00;96278.59;15270050;19;20474;-52
2023/03/14 01:42:34;;;;;;;0.22;0.22;;;;;;;9.75;100.00;96265.94;15265726;19;20018;-50
2023/03/14 01:47:59;;;;;;;1.02;0.30;;;;;;;9.77;100.00;96241.53;15269375;19;20522;-52
2023/03/14 01:53:24;;;;;;;0.70;0.20;;;;;;;9.85;100.00;96234.06;15271599;19;20010;-52
2023/03/14 01:58:54;;;;;;;0.60;0.30;;;;;;;9.84;100.00;96213.59;15271989;19;20756;-53
2023/03/14 02:04:21;;;;;;;0.77;0.37;;;;;;;9.87;100.00;96207.81;15270251;19;20011;-53
2023/03/14 02:09:47;;;;;;;1.35;0.30;;;;;;;9.92;100.00;96185.66;15267557;19;20650;-55
2023/03/14 02:15:19;;;;;;;0.65;0.25;;;;;;;10.03;100.00;96165.34;15269960;19;20035;-53
2023/03/14 02:20:54;;;;;;;1.17;0.45;;;;;;;9.97;100.00;96150.03;15273424;19;20023;-50
2023/03/14 02:26:24;;;;;;;1.50;0.50;;;;;;;10.03;100.00;96157.28;15265536;19;20412;-55
2023/03/14 02:31:51;;;;;;;1.02;0.38;;;;;;;10.02;100.00;96139.50;15272165;19;20015;-47
2023/03/14 02:37:17;;;;;;;0.82;0.40;;;;;;;10.12;100.00;96139.84;15270961;19;20019;-51
2023/03/14 02:42:41;;;;;;;0.98;0.40;;;;;;;10.15;100.00;96139.44;15266537;19;20011;-48
2023/03/14 02:48:14;;;;;;;1.08;0.40;;;;;;;10.09;100.00;96147.53;15267250;19;20819;-51
2023/03/14 02:53:41;;;;;;;1.55;0.47;;;;;;;10.11;100.00;96143.56;15267960;19;20019;-50
2023/03/14 02:59:08;;;;;;;0.57;0.40;;;;;;;10.14;100.00;96172.75;15264280;19;20032;-49
2023/03/14 03:04:39;;;;;;;1.67;0.40;;;;;;;10.12;100.00;96171.28;15269892;19;20026;-48
2023/03/14 03:10:04;;;;;;;2.38;0.60;;;;;;;10.15;100.00;96158.25;15274711;19;20419;-49
2023/03/14 03:15:30;;;;;;;1.17;0.40;;;;;;;10.13;100.00;96130.75;15267530;19;20023;-47
2023/03/14 03:20:58;;;;;;;2.13;0.60;;;;;;;10.16;100.00;96111.47;15263175;19;20023;-54
2023/03/14 03:26:22;;;;;;;1.42;0.43;;;;;;;10.10;100.00;96092.69;15268484;19;20031;-52
2023/03/14 03:31:50;;;;;;;1.38;0.60;;;;;;;10.07;100.00;96082.34;15267041;19;20015;-46
2023/03/14 03:37:17;;;;;;;0.80;0.50;;;;;;;9.98;100.00;96079.94;15265654;19;20022;-47
2023/03/14 03:42:44;;;;;;;1.70;0.50;;;;;;;10.05;100.00;96077.19;15266255;19;20594;-53
2023/03/14 03:48:08;;;;;;;5.30;0.80;;;;;;;10.11;100.00;96081.69;15262649;19;20029;-46
2023/03/14 03:53:37;;;;;;;1.40;0.60;;;;;;;10.08;100.00;96121.66;15282144;19;20014;-48
2023/03/14 03:59:07;;;;;;;1.95;0.60;;;;;;;10.09;100.00;96097.22;15275924;19;20032;-47
2023/03/14 04:04:33;;;;;;;4.43;0.90;;;;;;;10.05;100.00;96085.25;15277675;19;20553;-48
2023/03/14 04:10:00;;;;;;;2.50;0.70;;;;;;;10.01;100.00;96081.34;15276060;19;20035;-47
2023/03/14 04:15:32;;;;;;;2.50;0.80;;;;;;;10.07;100.00;96077.78;15277747;19;20015;-49
2023/03/14 04:21:03;;;;;;;2.47;0.80;;;;;;;10.02;100.00;96086.50;15269563;19;20369;-47
2023/03/14 04:26:41;;;;;;;3.13;0.90;;;;;;;10.01;100.00;96059.84;15273768;19;20021;-50
2023/03/14 04:32:06;;;;;;;3.72;0.85;;;;;;;9.93;100.00;96043.97;15277166;19;20471;-48
2023/03/14 04:37:31;;;;;;;2.78;0.88;;;;;;;9.88;100.00;96049.97;15245309;19;20010;-46
2023/03/14 04:43:01;;;;;;;2.60;0.70;;;;;;;9.90;100.00;96079.34;15269830;19;20078;-46
2023/03/14 04:48:35;;;;;;;2.42;0.80;;;;;;;9.79;100.00;96029.75;15266235;19;20663;-49
2023/03/14 04:54:01;;;;;;;1.83;0.75;;;;;;;9.94;100.00;96026.75;15262107;19;20018;-46
2023/03/14 04:59:29;;;;;;;1.38;0.60;;;;;;;9.81;100.00;96015.06;15269854;19;20018;-46
2023/03/14 05:05:20;;;;;;;2.55;0.80;;;;;;;9.82;100.00;96022.06;15271056;19;20029;-46
2023/03/14 05:10:51;;;;;;;2.13;0.80;;;;;;;9.89;100.00;96023.91;15274016;19;20486;-50
2023/03/14 05:16:39;;;;;;;2.25;0.70;;;;;;;9.80;100.00;95997.28;15270366;19;20607;-48
2023/03/14 05:22:12;;;;;;;3.67;0.80;;;;;;;9.84;100.00;96014.63;15276919;19;20032;-47
2023/03/14 05:27:53;;;;;;;1.73;0.65;;;;;;;9.83;100.00;96010.28;15265446;19;20018;-50
2023/03/14 05:33:36;;;;;;;1.63;0.60;;;;;;;9.78;100.00;96012.81;15272457;19;20038;-48
2023/03/14 05:39:20;;;;;;;2.97;0.98;;;;;;;9.86;100.00;96007.16;15267327;19;20014;-47
2023/03/14 05:45:03;;;;;;;1.05;0.50;;;;;;;9.92;100.00;96020.78;15268749;19;20019;-48
2023/03/14 05:50:50;;;;;;;1.60;0.68;;;;;;;9.91;100.00;96035.28;15271238;19;20364;-49
2023/03/14 05:56:36;;;;;;;2.85;0.68;;;;;;;9.96;100.00;96013.91;15268558;19;20016;-47
2023/03/14 06:02:23;;;;;;;1.33;0.50;;;;;;;9.76;100.00;96025.63;15270087;19;20466;-50
2023/03/14 06:07:53;;;;;;;1.92;0.60;;;;;;;9.76;100.00;96046.31;15266426;19;20022;-48
2023/03/14 06:13:19;;;;;;;3.47;0.60;;;;;;;9.68;100.00;96031.25;15265696;19;20014;-46
2023/03/14 06:18:46;;;;;;;3.00;0.60;;;;;;;9.64;100.00;96048.84;15265100;19;20482;-46
2023/03/14 06:24:14;;;;;;;1.30;0.60;;;;;;;9.75;100.00;96050.88;15270678;19;20030;-48
2023/03/14 06:29:40;;;;;;;1.00;0.40;;;;;;;9.74;100.00;96043.84;15263477;19;20042;-46
2023/03/14 06:35:06;;;;;;;1.40;0.50;;;;;;;9.74;100.00;96059.97;15270963;19;20738;-51
2023/03/14 06:40:34;;;;;;;1.80;0.60;;;;;;;9.78;100.00;96049.59;15267903;19;20014;-48
2023/03/14 06:46:02;;;;;;;1.67;0.50;;;;;;;9.78;100.00;96039.69;15266926;19;20514;-50
2023/03/14 06:51:28;;;;;;;1.65;0.50;;;;;;;9.90;100.00;96033.63;15265873;19;20339;-50
2023/03/14 06:56:57;;;;;;;1.70;0.50;;;;;;;9.92;100.00;96026.16;15268042;19;20042;-47
2023/03/14 07:02:23;;;;;;;1.98;0.50;;;;;;;9.92;100.00;96005.47;15259381;19;20015;-47
2023/03/14 07:08:11;;;;;;;2.50;0.50;;;;;;;9.93;100.00;96007.13;15265827;19;20040;-46
2023/03/14 07:13:39;;;;;;;0.80;0.40;;;;;;;9.96;100.00;96000.47;15267004;19;20019;-46
2023/03/14 07:19:05;;;;;;;1.77;0.57;;;;;;;9.99;100.00;96005.44;15265338;19;20020;-48
2023/03/14 07:24:31;;;;;;;2.45;0.52;;;;;;;10.05;100.00;96007.25;15276892;19;20047;-49
2023/03/14 07:29:58;;;;;;;0.75;0.30;;;;;;;10.10;100.00;95999.34;15276933;19;20054;-47
2023/03/14 07:35:24;;;;;;;1.17;0.45;;;;;;;10.21;100.00;96015.81;15276835;19;20344;-48
2023/03/14 07:40:48;;;;;;;0.98;0.40;;;;;;;10.11;100.00;96005.56;15278022;19;20046;-47
2023/03/14 07:46:20;;;;;;;1.20;0.57;;;;;;;10.08;100.00;96022.13;15278402;19;20050;-49
2023/03/14 07:51:45;;;;;;;1.10;0.40;;;;;;;10.10;100.00;96020.88;15277299;19;20017;-48
2023/03/14 07:57:11;;;;;;;0.85;0.40;;;;;;;10.16;100.00;96014.63;15273729;19;20018;-49
2023/03/14 08:02:45;;;;;;;1.65;0.40;;;;;;;10.24;100.00;96023.47;15274299;19;20369;-48
2023/03/14 08:08:10;;;;;;;2.00;0.65;;;;;;;10.38;100.00;96025.06;15271746;19;20086;-48
2023/03/14 08:13:34;;;;;;;1.35;0.50;;;;;;;10.44;100.00;96018.78;15278762;19;20432;-49
2023/03/14 08:19:01;;;;;;;1.55;0.47;;;;;;;10.51;100.00;96017.91;15273409;19;20014;-47
2023/03/14 08:24:26;;;;;;;0.88;0.30;;;;;;;10.57;100.00;96014.31;15278695;19;20018;-46
2023/03/14 08:29:51;;;;;;;0.43;0.20;;;;;;;10.61;100.00;96015.53;15273722;19;20396;-47
2023/03/14 08:35:19;;;;;;;1.70;0.30;;;;;;;10.68;100.00;96031.63;15275645;19;20028;-48
2023/03/14 08:40:44;;;;;;;0.95;0.40;;;;;;;10.75;100.00;96045.84;15270474;19;20026;-50
2023/03/14 08:46:10;;;;;;;1.33;0.60;;;;;;;10.81;100.00;96039.59;15276618;19;20031;-49
2023/03/14 08:51:37;;;;;;;1.58;0.40;;;;;;;10.76;100.00;96040.22;15273276;19;20028;-46
2023/03/14 08:57:02;;;;;;;1.75;0.30;;;;;;;10.82;100.00;96043.09;15277275;19;20347;-47
2023/03/14 09:02:35;;;;;;;1.05;0.40;;;;;;;10.90;100.00;96048.19;15291866;19;20474;-83
2023/03/14 09:08:02;;;;;;;0.73;0.30;;;;;;;11.06;100.00;96046.78;15297066;19;20350;-83
2023/03/14 09:13:27;;;;;;;1.10;0.30;;;;;;;11.09;100.00;96063.34;15298462;19;20025;-83
2023/03/14 09:18:54;;;;;;;1.85;0.28;;;;;;;11.08;100.00;96064.41;15297419;19;20013;-83
2023/03/14 09:24:21;;;;;;;0.93;0.30;;;;;;;11.16;100.00;96052.50;15294940;19;20022;-83
2023/03/14 09:29:46;;;;;;;1.05;0.30;;;;;;;11.23;100.00;96050.56;15289862;19;20006;-83
2023/03/14 09:35:10;;;;;;;1.13;0.45;;;;;;;11.31;100.00;96033.28;15293757;19;20038;-83
2023/03/14 09:40:41;;;;;;;0.43;0.30;;;;;;;11.27;100.00;96034.75;15294140;19;20014;-83
2023/03/14 09:46:11;;;;;;;0.68;0.30;;;;;;;11.33;100.00;96041.13;15293688;19;20029;-83
2023/03/14 09:51:36;;;;;;;0.20;0.20;;;;;;;11.37;100.00;96024.28;15304721;19;20023;-82
2023/03/14 09:57:04;;;;;;;0.98;0.20;;;;;;;11.51;100.00;96030.34;15291251;19;20371;-82
2023/03/14 10:07:55;;;;;;;0.63;0.25;;;;;;;11.66;100.00;96031.81;15287954;19;20098;-82
2023/03/14 10:13:27;;;;;;;0.45;0.20;;;;;;;11.87;100.00;96046.69;15296135;19;20010;-83
2023/03/14 10:18:53;;;;;;;0.80;0.20;;;;;;;11.85;100.00;96048.78;15296060;19;20010;-82
2023/03/14 10:24:30;;;;;;;0.22;0.10;;;;;;;11.72;100.00;96047.91;15305351;19;20037;-84
2023/03/14 10:29:59;;;;;;;0.20;0.10;;;;;;;11.65;100.00;96047.16;15318060;19;20011;-85
2023/03/14 10:35:30;;;;;;;0.50;0.10;;;;;;;11.64;100.00;96042.03;15326661;19;20232;-84
2023/03/14 10:40:58;;;;;;;0.38;0.10;;;;;;;11.55;100.00;96050.38;15344776;19;20021;-83
2023/03/14 10:46:27;;;;;;;2.20;0.20;;;;;;;11.53;100.00;96075.94;15286911;19;20010;-81
2023/03/14 10:52:22;;;;;;;0.00;0.00;;;;;;;11.45;100.00;96078.94;15284481;19;20010;-82
2023/03/14 10:58:07;;;;;;;0.82;0.10;;;;;;;11.43;100.00;96089.13;15335932;19;20010;-83
2023/03/14 11:03:47;;;;;;;0.30;0.20;;;;;;;11.27;100.00;96068.97;15352832;19;20011;-85
2023/03/14 11:09:23;;;;;;;0.27;0.20;;;;;;;11.27;100.00;96080.56;15357715;19;20010;-85
2023/03/14 11:15:03;;;;;;;0.40;0.17;;;;;;;11.60;100.00;96078.56;15361633;19;20271;-86
2023/03/14 11:26:23;;;;;;;0.80;0.28;;;;;;;11.93;100.00;96082.72;15359549;19;19987;-85
2023/03/14 11:31:50;;;;;;;0.95;0.20;;;;;;;12.16;100.00;96061.25;15361548;19;20623;-85
2023/03/14 13:02:31;;;;;;;0.32;0.20;;;;;;;13.02;100.00;95999.81;15280749;19;20002;-84
2023/03/14 13:08:09;;;;;;;0.20;0.10;;;;;;;12.90;100.00;95981.72;15302259;19;20015;-83
2023/03/14 13:13:35;;;;;;;0.40;0.20;;;;;;;13.02;100.00;95989.84;15301973;19;20367;-82
2023/03/14 13:19:14;;;;;;;0.30;0.20;;;;;;;13.14;100.00;95989.81;15292507;19;20474;-83
2023/03/14 13:24:43;;;;;;;0.25;0.10;;;;;;;13.10;100.00;95996.78;15298282;19;20027;-85
2023/03/14 13:30:19;;;;;;;1.65;0.10;;;;;;;13.07;100.00;95989.13;15291483;19;20018;-84
2023/03/14 13:35:53;;;;;;;0.30;0.17;;;;;;;12.89;100.00;95985.47;15294371;19;20089;-82
2023/03/14 13:41:18;;;;;;;0.68;0.10;;;;;;;12.93;100.00;95983.97;15306228;19;20010;-82
2023/03/14 13:46:44;;;;;;;0.45;0.13;;;;;;;12.91;100.00;95987.97;15308330;19;20042;-84
2023/03/14 13:52:30;;;;;;;0.40;0.20;;;;;;;12.66;100.00;95991.72;15309670;19;20014;-81
2023/03/14 13:57:58;;;;;;;0.20;0.10;;;;;;;12.53;100.00;96002.75;15305986;19;20007;-82
2023/03/14 14:03:29;;;;;;;0.68;0.20;;;;;;;12.33;100.00;95985.81;15296269;19;20373;-84
2023/03/14 14:08:59;;;;;;;0.88;0.17;;;;;;;12.20;100.00;96001.41;15298400;19;20085;-82
2023/03/14 14:14:29;;;;;;;0.28;0.10;;;;;;;12.15;100.00;96002.94;15300999;19;20722;-82
2023/03/14 14:19:58;;;;;;;0.17;0.17;;;;;;;12.04;100.00;96013.69;15302782;19;20485;-83
2023/03/14 14:25:26;;;;;;;0.43;0.10;;;;;;;12.04;100.00;96029.91;15300940;19;20474;-84
2023/03/14 14:31:07;;;;;;;0.20;0.10;;;;;;;11.83;100.00;96040.09;15300069;19;20014;-83
2023/03/14 14:36:34;;;;;;;0.00;0.00;;;;;;;11.37;100.00;96051.22;15306688;19;20379;-82
2023/03/14 14:42:01;;;;;;;0.15;0.05;;;;;;;11.07;100.00;96067.28;15291284;19;20020;-84
2023/03/14 14:47:30;;;;;;;0.38;0.10;;;;;;;10.77;100.00;96094.94;15287783;19;20018;-83
2023/03/14 14:52:59;;;;;;;0.25;0.10;;;;;;;10.45;100.00;96114.63;14785386;19;9999978;-83
2023/03/14 14:58:33;;;;;;;0.57;0.10;;;;;;;10.07;100.00;96161.16;15292039;19;20014;-83
2023/03/14 15:03:59;;;;;;;4.40;0.30;;;;;;;7.85;100.00;96252.34;15288379;19;20006;-86
2023/03/14 15:09:26;;;;;;;0.50;0.17;;;;;;;6.44;100.00;96331.41;15292534;19;20007;-89
2023/03/14 15:14:57;;;;;;;0.45;0.20;;;;;;;6.36;100.00;96355.56;15289228;19;20014;-88
2023/03/14 15:20:26;;;;;;;2.00;0.40;;;;;;;6.17;100.00;96379.16;15285797;19;20021;-83
2023/03/14 15:25:52;;;;;;;1.38;0.30;;;;;;;6.08;100.00;96425.72;15292322;19;20042;-85
2023/03/14 15:31:21;;;;;;;1.13;0.28;;;;;;;6.05;100.00;96486.72;15286428;19;20010;-86
2023/03/14 15:36:46;;;;;;;0.57;0.30;;;;;;;6.04;100.00;96495.75;15278939;19;20022;-86
2023/03/14 15:42:11;;;;;;;0.70;0.20;;;;;;;5.89;100.00;96525.09;15277180;19;20014;-85
2023/03/14 15:47:39;;;;;;;0.20;0.20;;;;;;;5.52;100.00;96506.97;15285785;19;20021;-86
2023/03/14 15:53:03;;;;;;;0.55;0.10;;;;;;;5.11;100.00;96531.22;15294574;19;20089;-85
2023/03/14 15:58:28;;;;;;;0.30;0.20;;;;;;;4.81;100.00;96555.00;15291991;19;20058;-86
2023/03/14 16:04:03;;;;;;;0.43;0.20;;;;;;;4.53;100.00;96594.56;15293740;19;20490;-85
2023/03/14 16:09:29;;;;;;;0.30;0.30;;;;;;;4.35;100.00;96640.06;15290988;19;20042;-84
2023/03/14 16:14:56;;;;;;;0.60;0.60;;;;;;;4.09;100.00;96684.50;15301599;19;20391;-84
2023/03/14 16:20:25;;;;;;;0.40;0.40;;;;;;;3.79;100.00;96731.22;15306199;19;20475;-84
2023/03/14 16:26:05;;;;;;;0.95;0.22;;;;;;;3.61;100.00;96749.94;15296237;19;20042;-86
2023/03/14 16:31:30;;;;;;;3.65;0.60;;;;;;;3.32;100.00;96762.59;15298834;19;20409;-84
2023/03/14 16:36:57;;;;;;;1.30;0.40;;;;;;;3.23;100.00;96775.00;15293970;19;20034;-85
2023/03/14 16:42:24;;;;;;;1.45;0.50;;;;;;;3.16;100.00;96815.69;15308631;19;20427;-85
2023/03/14 16:47:50;;;;;;;1.10;0.40;;;;;;;3.13;100.00;96843.44;15308920;19;20018;-82
2023/03/14 16:53:18;;;;;;;1.40;0.65;;;;;;;3.14;100.00;96846.94;15305134;19;20025;-85
2023/03/14 16:59:10;;;;;;;2.67;0.90;;;;;;;3.14;100.00;96877.03;15300509;19;20014;-86
2023/03/14 17:04:43;;;;;;;1.42;0.50;;;;;;;3.20;100.00;96919.00;15301700;19;20015;-84
2023/03/14 17:10:12;;;;;;;0.50;0.40;;;;;;;3.23;100.00;96939.19;15299116;19;20014;-83
2023/03/14 17:15:37;;;;;;;1.35;0.65;;;;;;;3.21;100.00;96946.47;15295218;19;20049;-82
2023/03/14 17:21:03;;;;;;;1.42;0.60;;;;;;;3.13;100.00;96962.31;15297598;19;20023;-86
2023/03/14 17:26:33;;;;;;;1.05;0.57;;;;;;;3.09;100.00;96980.41;15292175;19;20031;-82
2023/03/14 17:32:02;;;;;;;3.17;0.77;;;;;;;3.03;100.00;96989.84;15299362;19;20021;-86
2023/03/14 17:37:34;;;;;;;1.95;0.73;;;;;;;3.05;100.00;97006.50;15302153;19;20011;-86
2023/03/14 17:43:06;;;;;;;5.93;1.30;;;;;;;3.05;100.00;97021.63;15311912;19;20018;-89
2023/03/14 17:48:34;;;;;;;4.40;0.85;;;;;;;3.04;100.00;97042.06;15305255;19;20014;-84
2023/03/14 17:53:59;;;;;;;5.30;1.48;;;;;;;3.05;100.00;97058.88;15318025;19;20015;-87
2023/03/14 17:59:32;;;;;;;5.50;1.23;;;;;;;3.04;100.00;97084.63;15311422;19;20021;-87
2023/03/14 18:16:16;;;;;;;5.53;1.23;;;;;;;3.14;100.00;97118.34;15363188;19;20018;-82
2023/03/14 18:21:47;;;;;;;3.83;1.27;;;;;;;3.38;100.00;97139.13;15368784;19;20017;-85
2023/03/14 18:27:16;;;;;;;5.72;1.83;;;;;;;3.40;100.00;97150.47;15342954;19;20007;-84
2023/03/14 18:32:45;;;;;;;5.40;1.50;;;;;;;3.52;100.00;97161.75;15303575;19;20369;-86
2023/03/14 18:38:17;;;;;;;6.55;1.55;;;;;;;3.49;100.00;97162.88;15301763;19;20030;-84
2023/03/14 18:43:42;;;;;;;7.38;1.48;;;;;;;3.60;100.00;97174.31;15296826;19;20092;-84
2023/03/14 18:49:07;;;;;;;5.05;1.50;;;;;;;3.47;100.00;97204.78;15295213;19;20081;-85
2023/03/14 18:54:35;;;;;;;10.73;1.85;;;;;;;3.45;100.00;97203.28;15299524;19;20018;-85
2023/03/14 19:00:05;;;;;;;10.83;1.90;;;;;;;3.36;100.00;97211.13;15297094;19;20034;-84
2023/03/14 19:05:38;;;;;;;12.70;2.30;;;;;;;3.23;100.00;97232.75;15299303;19;20562;-83
2023/03/14 19:11:11;;;;;;;10.45;2.28;;;;;;;3.14;100.00;97241.59;15297306;19;20078;-83
2023/03/14 19:16:35;;;;;;;9.15;1.77;;;;;;;3.11;100.00;97251.72;15302378;19;20014;-84
2023/03/14 19:22:00;;;;;;;7.30;1.80;;;;;;;2.97;100.00;97252.97;15328136;19;20018;-84
2023/03/14 19:27:27;;;;;;;7.80;1.98;;;;;;;2.92;100.00;97264.03;15326865;19;20074;-83
2023/03/14 19:32:52;;;;;;;9.05;2.67;;;;;;;2.79;100.00;97280.28;15330541;19;20024;-84
2023/03/14 19:38:18;;;;;;;9.93;2.03;;;;;;;2.80;100.00;97286.44;15335337;19;20351;-83
2023/03/14 19:43:46;;;;;;;8.70;1.85;;;;;;;2.55;100.00;97305.47;15327909;19;20011;-84
2023/03/14 19:49:12;;;;;;;10.43;2.03;;;;;;;2.47;100.00;97313.28;15325862;19;20070;-84
2023/03/14 19:54:40;;;;;;;8.63;1.92;;;;;;;2.55;100.00;97323.22;15334093;19;20047;-86
2023/03/14 20:00:10;;;;;;;7.57;1.77;;;;;;;2.49;100.00;97340.56;15326264;19;20568;-84
2023/03/14 20:05:35;;;;;;;9.02;1.90;;;;;;;2.51;100.00;97354.56;15319315;19;20007;-84
2023/03/14 20:10:59;;;;;;;6.10;1.80;;;;;;;2.62;100.00;97364.25;15303336;19;20518;-85
2023/03/14 20:16:27;;;;;;;8.93;1.80;;;;;;;2.56;100.00;97381.59;15325371;19;20039;-85
2023/03/14 20:21:51;;;;;;;10.10;1.83;;;;;;;2.42;100.00;97389.97;15337325;19;20014;-85
2023/03/14 20:27:17;;;;;;;8.73;2.10;;;;;;;2.34;100.00;97422.53;15319868;19;20082;-83
2023/03/14 20:32:44;;;;;;;10.80;2.10;;;;;;;2.46;100.00;97420.63;15305432;19;20007;-84
2023/03/14 20:38:10;;;;;;;8.98;2.00;;;;;;;2.41;100.00;97428.97;15299674;19;20020;-85
2023/03/14 20:43:36;;;;;;;6.22;1.70;;;;;;;2.72;100.00;97447.56;15300241;19;20014;-85
2023/03/14 20:49:04;;;;;;;7.55;2.00;;;;;;;2.47;100.00;97455.03;15295485;19;20018;-83
2023/03/14 20:54:29;;;;;;;8.48;1.83;;;;;;;2.66;100.00;97460.56;15307252;19;20031;-84
2023/03/14 20:59:54;;;;;;;6.97;1.77;;;;;;;2.60;100.00;97459.28;15309921;19;20019;-89
2023/03/14 21:10:50;;;;;;;6.97;1.60;;;;;;;2.73;100.00;97464.34;15307461;19;20014;-86
2023/03/14 21:16:16;;;;;;;6.20;1.42;;;;;;;2.67;100.00;97465.72;15299507;19;20017;-86
2023/03/14 21:21:43;;;;;;;6.72;1.70;;;;;;;2.65;100.00;97459.69;15297363;19;20375;-85
2023/03/14 21:27:18;;;;;;;6.50;1.50;;;;;;;2.73;100.00;97459.88;15304806;19;20098;-87
2023/03/14 21:32:46;;;;;;;6.38;1.58;;;;;;;2.87;100.00;97477.28;15305017;19;20018;-85
2023/03/14 21:38:16;;;;;;;7.68;1.40;;;;;;;2.82;100.00;97484.84;15308514;19;20645;-85
2023/03/14 21:43:44;;;;;;;8.32;1.55;;;;;;;3.04;100.00;97497.06;15298756;19;20478;-85
2023/03/14 21:49:18;;;;;;;9.82;1.88;;;;;;;3.13;100.00;97503.38;15302768;19;20016;-87
2023/03/14 21:54:46;;;;;;;5.78;1.65;;;;;;;2.99;100.00;97512.59;15315055;19;20010;-89
2023/03/14 22:00:12;;;;;;;6.65;1.80;;;;;;;2.80;100.00;97528.47;15310215;19;20765;-85
2023/03/14 22:05:43;;;;;;;7.32;1.77;;;;;;;2.97;100.00;97533.19;15300170;19;20074;-84
2023/03/14 22:11:13;;;;;;;7.85;2.00;;;;;;;2.85;100.00;97551.03;15308872;19;20022;-84
2023/03/14 22:16:37;;;;;;;7.68;1.52;;;;;;;3.22;100.00;97544.31;15307253;19;20017;-84
2023/03/14 22:22:02;;;;;;;6.25;1.58;;;;;;;2.91;100.00;97557.66;15315472;19;20041;-83
2023/03/14 22:27:31;;;;;;;5.65;1.60;;;;;;;2.93;100.00;97569.00;15294932;19;20445;-83
2023/03/14 22:32:56;;;;;;;7.30;1.38;;;;;;;2.83;100.00;97576.09;15297373;19;20019;-84
2023/03/14 22:38:25;;;;;;;6.85;1.48;;;;;;;2.79;100.00;97580.84;15300814;19;20032;-84
2023/03/14 22:43:56;;;;;;;7.95;1.88;;;;;;;2.77;100.00;97591.59;15314671;19;20014;-84
2023/03/14 22:49:35;;;;;;;7.67;1.80;;;;;;;2.72;100.00;97596.50;15308563;19;20025;-84
2023/03/14 22:55:00;;;;;;;8.50;1.77;;;;;;;2.74;100.00;97607.84;15311305;19;20280;-84
2023/03/14 23:00:30;;;;;;;6.22;1.65;;;;;;;2.67;100.00;97612.00;15311299;19;20454;-84
2023/03/14 23:06:01;;;;;;;7.30;1.73;;;;;;;2.64;100.00;97614.94;15299386;19;20035;-85
2023/03/14 23:11:30;;;;;;;8.65;1.73;;;;;;;2.62;100.00;97627.53;15299922;19;20017;-84
2023/03/14 23:16:55;;;;;;;12.30;1.95;;;;;;;2.58;100.00;97631.41;15300094;19;20356;-84
2023/03/14 23:22:31;;;;;;;6.45;1.80;;;;;;;2.47;100.00;97638.47;15305866;19;20029;-84
2023/03/14 23:27:56;;;;;;;7.57;1.45;;;;;;;2.50;100.00;97644.50;15303356;19;20322;-85
2023/03/14 23:33:30;;;;;;;7.80;1.45;;;;;;;2.29;100.00;97634.72;15300437;19;20742;-84
